EDT,Max TemperatureF,Mean TemperatureF,Min TemperatureF,Max Dew PointF,MeanDew PointF,Min DewpointF,Max Humidity, Mean Humidity, Min Humidity, Max Sea Level PressureIn, Mean Sea Level PressureIn, Min Sea Level PressureIn, Max VisibilityMiles, Mean VisibilityMiles, Min VisibilityMiles, Max Wind SpeedMPH, Mean Wind SpeedMPH, Max Gust SpeedMPH,PrecipitationIn, CloudCover, Events, WindDirDegrees
2013-4-1,54,48,37,47,42,15,100,82,39,29.77,29.64,29.56,10,7,1,20,13,31,0.19,6,Rain,235
2013-4-2,44,38,32,19,13,7,52,38,26,29.96,29.87,29.80,10,10,10,21,12,31,0.00,2,,275
2013-4-3,48,40,33,15,12,9,48,34,22,30.13,29.99,29.93,10,10,10,23,15,33,0.00,0,,275
2013-4-4,46,39,32,34,21,14,76,49,32,30.29,30.19,30.09,10,10,10,23,12,30,0.00,0,,253
2013-4-5,51,46,42,45,39,32,93,80,65,30.09,29.82,29.64,10,10,5,18,10,26,0.07,4,Rain,221
2013-4-6,44,40,32,29,19,10,75,45,26,30.34,30.16,29.85,10,10,2,21,12,31,0.00,0,,334
2013-4-7,48,37,26,43,32,21,84,71,50,30.34,30.22,30.06,10,10,10,20,7,26,0.00,0,,197
2013-4-8,61,53,46,46,42,39,90,68,47,30.12,30.04,29.97,10,10,10,20,12,25,0.00,1,,193
2013-4-9,66,56,46,52,46,40,100,81,54,30.11,29.95,29.86,10,8,0,20,8,26,0.00,3,Fog-Rain,176
2013-4-10,57,52,46,47,45,42,100,82,64,29.99,29.92,29.86,10,9,2,14,6,21,0.36,3,Rain,77
2013-4-11,54,50,46,46,41,31,100,78,47,30.12,29.94,29.80,10,7,0,14,6,25,0.05,7,Fog-Rain,37
2013-4-12,46,42,39,45,37,28,100,83,50,30.13,29.94,29.67,10,5,1,21,10,32,1.03,8,Rain,84
2013-4-13,48,44,39,43,39,36,100,86,66,29.94,29.80,29.64,10,9,4,25,13,44,0.07,7,Rain,7
2013-4-14,57,48,39,41,36,26,93,65,45,30.19,30.01,29.93,10,10,10,15,5,21,0.00,5,Rain,290
2013-4-15,52,44,37,41,36,27,93,71,52,30.43,30.33,30.19,10,10,10,9,6,,0.00,0,,67
2013-4-16,54,44,35,49,43,34,100,85,69,30.42,30.33,30.10,10,10,10,23,7,31,0.00,1,,186
2013-4-17,63,50,37,54,44,31,100,76,32,30.32,30.17,30.08,10,10,7,30,14,37,0.01,4,Rain,253
2013-4-18,57,44,33,47,37,29,100,75,40,30.41,30.34,30.17,10,9,0,15,4,23,0.00,1,Fog,131
2013-4-19,62,57,52,59,55,50,100,97,86,30.15,29.95,29.77,10,5,0,20,13,33,0.00,8,Fog-Rain,201
2013-4-20,59,52,44,59,50,37,100,88,62,30.18,29.84,29.70,10,7,2,22,15,34,0.32,5,Rain,241
2013-4-21,48,40,32,31,25,22,79,52,39,30.66,30.48,30.21,10,10,10,16,10,24,0.00,0,,1
2013-4-22,52,56,30,57,32,26,89,66,41,30.70,30.61,29.95,10,10,10,16,6,25,0.00,3,,78
2013-4-23,46,44,41,45,43,35,100,95,76,30.52,30.26,29.96,10,4,2,21,11,32,1.21,8,Rain,40
2013-4-24,57,50,44,51,45,43,100,89,69,29.96,29.88,29.78,10,6,1,24,18,40,0.53,6,Rain,307
2013-4-25,57,50,39,54,46,38,100,83,49,30.25,30.06,29.91,10,9,6,17,11,22,0.02,5,Rain,235
2013-4-26,59,47,37,43,38,32,96,70,39,30.41,30.35,30.25,10,10,8,12,3,,0.00,0,,123
2013-4-27,57,44,33,45,35,30,100,69,38,30.41,30.37,30.33,10,10,2,8,2,,0.00,1,,175
2013-4-28,59,46,34,46,41,32,93,76,46,30.35,30.31,30.27,10,10,10,10,3,,0.00,0,,186
2013-4-29,61,50,39,47,39,25,97,71,26,30.30,30.27,30.25,10,10,7,10,3,,0.00,0,,182
2013-4-30,62,50,37,39,33,24,96,59,24,30.36,30.31,30.25,10,10,10,9,2,15,0.00,0,,135